sensor_id;sensor_type;location;lat;lon;timestamp;pressure;altitude;pressure_sealevel;temperature;humidity
71149;BME280;59072;42.144;25.200;2022-07-21T00:01:33;100124.16;;;20.13;59.62
71149;BME280;59072;42.144;25.200;2022-07-21T00:03:59;100136.13;;;20.01;60.09
71149;BME280;59072;42.144;25.200;2022-07-21T00:06:25;100143.97;;;20.03;60.31
71149;BME280;59072;42.144;25.200;2022-07-21T00:08:51;100142.59;;;20.05;60.27
71149;BME280;59072;42.144;25.200;2022-07-21T00:11:16;100149.66;;;20.01;60.60
71149;BME280;59072;42.144;25.200;2022-07-21T00:13:42;100144.31;;;19.91;60.86
71149;BME280;59072;42.144;25.200;2022-07-21T00:16:08;100123.28;;;19.78;61.21
71149;BME280;59072;42.144;25.200;2022-07-21T00:18:33;100124.66;;;19.65;61.91
71149;BME280;59072;42.144;25.200;2022-07-21T00:20:59;100144.41;;;19.71;62.26
71149;BME280;59072;42.144;25.200;2022-07-21T00:23:26;100139.81;;;19.71;61.40
71149;BME280;59072;42.144;25.200;2022-07-21T00:25:52;100137.38;;;19.70;61.00
71149;BME280;59072;42.144;25.200;2022-07-21T00:28:18;100134.97;;;19.58;61.25
71149;BME280;59072;42.144;25.200;2022-07-21T00:30:45;100132.97;;;19.89;60.59
71149;BME280;59072;42.144;25.200;2022-07-21T00:33:10;100125.34;;;19.96;59.97
71149;BME280;59072;42.144;25.200;2022-07-21T00:35:36;100131.69;;;20.21;59.04
71149;BME280;59072;42.144;25.200;2022-07-21T00:38:01;100117.75;;;19.98;59.36
71149;BME280;59072;42.144;25.200;2022-07-21T00:40:27;100125.38;;;20.31;58.15
71149;BME280;59072;42.144;25.200;2022-07-21T00:42:53;100120.22;;;20.34;57.27
71149;BME280;59072;42.144;25.200;2022-07-21T00:45:18;100137.91;;;20.21;58.36
71149;BME280;59072;42.144;25.200;2022-07-21T00:47:44;100137.19;;;20.11;59.05
71149;BME280;59072;42.144;25.200;2022-07-21T00:50:14;100129.06;;;20.05;59.79
71149;BME280;59072;42.144;25.200;2022-07-21T00:52:40;100131.97;;;19.59;61.27
71149;BME280;59072;42.144;25.200;2022-07-21T00:55:06;100125.66;;;19.14;63.76
71149;BME280;59072;42.144;25.200;2022-07-21T00:57:34;100123.91;;;19.49;61.91
71149;BME280;59072;42.144;25.200;2022-07-21T01:00:01;100128.91;;;19.86;60.44
71149;BME280;59072;42.144;25.200;2022-07-21T01:02:27;100105.44;;;19.66;60.48
71149;BME280;59072;42.144;25.200;2022-07-21T01:04:53;100130.88;;;19.76;59.78
71149;BME280;59072;42.144;25.200;2022-07-21T01:07:19;100130.31;;;19.68;59.93
71149;BME280;59072;42.144;25.200;2022-07-21T01:09:45;100123.84;;;19.75;59.93
71149;BME280;59072;42.144;25.200;2022-07-21T01:12:11;100110.91;;;19.56;59.39
71149;BME280;59072;42.144;25.200;2022-07-21T01:14:37;100124.75;;;19.44;60.28
71149;BME280;59072;42.144;25.200;2022-07-21T01:17:03;100102.84;;;19.41;60.11
71149;BME280;59072;42.144;25.200;2022-07-21T01:19:29;100117.16;;;19.52;60.67
71149;BME280;59072;42.144;25.200;2022-07-21T01:21:55;100098.88;;;19.18;61.21
71149;BME280;59072;42.144;25.200;2022-07-21T01:24:20;100120.81;;;19.11;61.88
71149;BME280;59072;42.144;25.200;2022-07-21T01:26:49;100106.16;;;19.22;61.30
71149;BME280;59072;42.144;25.200;2022-07-21T01:29:15;100107.81;;;19.08;61.89
71149;BME280;59072;42.144;25.200;2022-07-21T01:31:42;100111.06;;;19.15;61.71
71149;BME280;59072;42.144;25.200;2022-07-21T01:34:09;100106.50;;;19.00;62.07
71149;BME280;59072;42.144;25.200;2022-07-21T01:36:34;100106.75;;;19.09;61.83
71149;BME280;59072;42.144;25.200;2022-07-21T01:39:00;100113.66;;;19.46;61.55
71149;BME280;59072;42.144;25.200;2022-07-21T01:41:44;100100.78;;;19.17;62.54
71149;BME280;59072;42.144;25.200;2022-07-21T01:44:12;100110.50;;;19.18;63.38
71149;BME280;59072;42.144;25.200;2022-07-21T01:46:50;100105.88;;;19.24;63.49
71149;BME280;59072;42.144;25.200;2022-07-21T01:49:17;100091.06;;;19.06;63.67
71149;BME280;59072;42.144;25.200;2022-07-21T01:51:43;100108.91;;;19.02;63.87
71149;BME280;59072;42.144;25.200;2022-07-21T01:54:09;100087.22;;;19.22;62.90
71149;BME280;59072;42.144;25.200;2022-07-21T01:56:36;100103.25;;;18.93;64.34
71149;BME280;59072;42.144;25.200;2022-07-21T01:59:02;100111.41;;;18.88;64.32
71149;BME280;59072;42.144;25.200;2022-07-21T02:01:28;100107.84;;;18.67;64.97
71149;BME280;59072;42.144;25.200;2022-07-21T02:03:56;100113.25;;;18.87;64.43
71149;BME280;59072;42.144;25.200;2022-07-21T02:06:22;100108.84;;;19.22;63.60
71149;BME280;59072;42.144;25.200;2022-07-21T02:08:48;100109.91;;;19.32;63.01
71149;BME280;59072;42.144;25.200;2022-07-21T02:11:15;100117.34;;;18.70;65.06
71149;BME280;59072;42.144;25.200;2022-07-21T02:13:41;100117.03;;;18.40;65.62
71149;BME280;59072;42.144;25.200;2022-07-21T02:16:07;100109.47;;;18.32;66.86
71149;BME280;59072;42.144;25.200;2022-07-21T02:18:34;100111.13;;;18.33;66.14
71149;BME280;59072;42.144;25.200;2022-07-21T02:20:59;100098.69;;;18.58;64.26
71149;BME280;59072;42.144;25.200;2022-07-21T02:23:25;100106.25;;;18.61;64.46
71149;BME280;59072;42.144;25.200;2022-07-21T02:25:51;100089.50;;;18.13;66.57
71149;BME280;59072;42.144;25.200;2022-07-21T02:28:18;100104.09;;;18.58;64.83
71149;BME280;59072;42.144;25.200;2022-07-21T02:30:44;100111.66;;;18.51;64.21
71149;BME280;59072;42.144;25.200;2022-07-21T02:33:10;100090.03;;;18.51;63.83
71149;BME280;59072;42.144;25.200;2022-07-21T02:35:36;100098.69;;;18.42;65.22
71149;BME280;59072;42.144;25.200;2022-07-21T02:38:02;100092.19;;;18.69;64.27
71149;BME280;59072;42.144;25.200;2022-07-21T02:40:27;100094.91;;;18.43;64.74
71149;BME280;59072;42.144;25.200;2022-07-21T02:42:53;100079.25;;;18.35;65.05
71149;BME280;59072;42.144;25.200;2022-07-21T02:45:18;100065.75;;;18.35;64.06
71149;BME280;59072;42.144;25.200;2022-07-21T02:48:08;100093.28;;;18.22;64.87
71149;BME280;59072;42.144;25.200;2022-07-21T02:50:35;100083.03;;;18.55;63.62
71149;BME280;59072;42.144;25.200;2022-07-21T02:53:04;100091.13;;;18.29;63.94
71149;BME280;59072;42.144;25.200;2022-07-21T02:55:30;100091.69;;;18.52;64.13
71149;BME280;59072;42.144;25.200;2022-07-21T02:58:13;100095.16;;;18.37;64.24
71149;BME280;59072;42.144;25.200;2022-07-21T03:00:45;100095.44;;;18.20;65.22
71149;BME280;59072;42.144;25.200;2022-07-21T03:03:13;100093.81;;;18.34;65.47
71149;BME280;59072;42.144;25.200;2022-07-21T03:05:38;100084.63;;;18.10;66.30
71149;BME280;59072;42.144;25.200;2022-07-21T03:08:05;100092.19;;;18.07;66.86
71149;BME280;59072;42.144;25.200;2022-07-21T03:10:31;100082.13;;;17.82;66.56
71149;BME280;59072;42.144;25.200;2022-07-21T03:12:56;100088.97;;;18.11;65.84
71149;BME280;59072;42.144;25.200;2022-07-21T03:15:22;100086.25;;;18.26;65.75
71149;BME280;59072;42.144;25.200;2022-07-21T03:17:47;100082.50;;;18.42;65.18
71149;BME280;59072;42.144;25.200;2022-07-21T03:20:13;100097.59;;;18.38;64.99
71149;BME280;59072;42.144;25.200;2022-07-21T03:22:38;100066.84;;;18.34;64.87
71149;BME280;59072;42.144;25.200;2022-07-21T03:25:05;100087.34;;;18.56;64.47
71149;BME280;59072;42.144;25.200;2022-07-21T03:27:30;100088.94;;;18.67;63.91
71149;BME280;59072;42.144;25.200;2022-07-21T03:29:56;100069.25;;;18.61;64.09
71149;BME280;59072;42.144;25.200;2022-07-21T03:32:22;100090.06;;;18.45;65.16
71149;BME280;59072;42.144;25.200;2022-07-21T03:34:47;100090.31;;;18.23;65.84
71149;BME280;59072;42.144;25.200;2022-07-21T03:37:12;100084.34;;;17.96;65.86
71149;BME280;59072;42.144;25.200;2022-07-21T03:39:38;100075.72;;;18.14;65.63
71149;BME280;59072;42.144;25.200;2022-07-21T03:42:04;100091.13;;;18.24;64.97
71149;BME280;59072;42.144;25.200;2022-07-21T03:44:29;100090.31;;;18.23;65.50
71149;BME280;59072;42.144;25.200;2022-07-21T03:46:55;100097.59;;;18.38;65.48
71149;BME280;59072;42.144;25.200;2022-07-21T03:49:23;100096.00;;;18.37;65.29
71149;BME280;59072;42.144;25.200;2022-07-21T03:51:49;100098.41;;;18.28;65.77
71149;BME280;59072;42.144;25.200;2022-07-21T03:54:14;100091.97;;;18.55;64.92
71149;BME280;59072;42.144;25.200;2022-07-21T03:56:40;100078.72;;;18.23;65.62
71149;BME280;59072;42.144;25.200;2022-07-21T03:59:05;100097.59;;;18.18;66.23
71149;BME280;59072;42.144;25.200;2022-07-21T04:01:31;100096.22;;;18.10;66.51
71149;BME280;59072;42.144;25.200;2022-07-21T04:03:56;100094.91;;;18.02;66.73
71149;BME280;59072;42.144;25.200;2022-07-21T04:06:22;100082.72;;;17.90;66.47
71149;BME280;59072;42.144;25.200;2022-07-21T04:08:47;100096.78;;;18.17;66.36
71149;BME280;59072;42.144;25.200;2022-07-21T04:11:12;100104.34;;;18.25;65.10
71149;BME280;59072;42.144;25.200;2022-07-21T04:13:38;100101.91;;;18.09;66.22
71149;BME280;59072;42.144;25.200;2022-07-21T04:16:04;100093.81;;;18.09;65.92
71149;BME280;59072;42.144;25.200;2022-07-21T04:18:29;100093.84;;;18.29;65.38
71149;BME280;59072;42.144;25.200;2022-07-21T04:20:55;100087.38;;;18.35;65.73
71149;BME280;59072;42.144;25.200;2022-07-21T04:23:20;100077.91;;;18.27;65.68
71149;BME280;59072;42.144;25.200;2022-07-21T04:25:46;100084.94;;;18.39;66.48
71149;BME280;59072;42.144;25.200;2022-07-21T04:28:11;100085.19;;;18.47;66.50
71149;BME280;59072;42.144;25.200;2022-07-21T04:30:37;100092.22;;;18.48;66.45
71149;BME280;59072;42.144;25.200;2022-07-21T04:33:02;100064.94;;;18.55;66.33
71149;BME280;59072;42.144;25.200;2022-07-21T04:35:28;100085.19;;;18.89;65.68
71149;BME280;59072;42.144;25.200;2022-07-21T04:37:53;100062.75;;;18.88;66.13
71149;BME280;59072;42.144;25.200;2022-07-21T04:40:19;100088.66;;;19.04;66.11
71149;BME280;59072;42.144;25.200;2022-07-21T04:42:45;100066.22;;;19.04;66.07
71149;BME280;59072;42.144;25.200;2022-07-21T04:45:12;100067.31;;;19.03;66.30
71149;BME280;59072;42.144;25.200;2022-07-21T04:47:56;100082.94;;;19.21;65.96
71149;BME280;59072;42.144;25.200;2022-07-21T04:50:26;100085.59;;;19.26;66.00
71149;BME280;59072;42.144;25.200;2022-07-21T04:52:53;100071.53;;;19.24;65.94
71149;BME280;59072;42.144;25.200;2022-07-21T04:55:19;100065.56;;;19.33;65.30
71149;BME280;59072;42.144;25.200;2022-07-21T04:57:47;100094.69;;;19.56;65.90
71149;BME280;59072;42.144;25.200;2022-07-21T05:00:15;100094.06;;;19.75;64.57
71149;BME280;59072;42.144;25.200;2022-07-21T05:02:41;100084.75;;;19.96;64.39
71149;BME280;59072;42.144;25.200;2022-07-21T05:05:07;100085.81;;;20.00;63.59
71149;BME280;59072;42.144;25.200;2022-07-21T05:07:33;100090.69;;;19.98;63.71
71149;BME280;59072;42.144;25.200;2022-07-21T05:09:59;100091.09;;;20.16;62.79
71149;BME280;59072;42.144;25.200;2022-07-21T05:12:27;100075.97;;;20.10;63.07
71149;BME280;59072;42.144;25.200;2022-07-21T05:14:53;100083.44;;;20.28;62.37
71149;BME280;59072;42.144;25.200;2022-07-21T05:17:18;100105.00;;;20.38;62.58
71149;BME280;59072;42.144;25.200;2022-07-21T05:19:44;100098.38;;;20.60;61.43
71149;BME280;59072;42.144;25.200;2022-07-21T05:22:13;100083.22;;;20.54;61.49
71149;BME280;59072;42.144;25.200;2022-07-21T05:24:39;100094.28;;;20.62;62.46
71149;BME280;59072;42.144;25.200;2022-07-21T05:27:04;100098.69;;;20.82;61.75
71149;BME280;59072;42.144;25.200;2022-07-21T05:29:30;100103.44;;;20.96;62.01
71149;BME280;59072;42.144;25.200;2022-07-21T05:31:55;100102.16;;;21.12;61.18
71149;BME280;59072;42.144;25.200;2022-07-21T05:34:20;100113.59;;;21.09;61.78
71149;BME280;59072;42.144;25.200;2022-07-21T05:36:46;100101.50;;;21.25;61.96
71149;BME280;59072;42.144;25.200;2022-07-21T05:39:11;100097.50;;;21.42;61.22
71149;BME280;59072;42.144;25.200;2022-07-21T05:41:37;100099.81;;;21.54;60.22
71149;BME280;59072;42.144;25.200;2022-07-21T05:44:02;100083.19;;;21.60;59.92
71149;BME280;59072;42.144;25.200;2022-07-21T05:46:28;100107.03;;;22.01;58.67
71149;BME280;59072;42.144;25.200;2022-07-21T05:48:54;100086.47;;;21.95;59.09
71149;BME280;59072;42.144;25.200;2022-07-21T05:51:20;100098.63;;;22.17;57.15
71149;BME280;59072;42.144;25.200;2022-07-21T05:53:45;100088.00;;;22.20;57.86
71149;BME280;59072;42.144;25.200;2022-07-21T05:56:10;100091.31;;;22.36;57.23
71149;BME280;59072;42.144;25.200;2022-07-21T05:58:36;100091.50;;;22.73;56.91
71149;BME280;59072;42.144;25.200;2022-07-21T06:01:02;100078.44;;;22.89;55.74
71149;BME280;59072;42.144;25.200;2022-07-21T06:03:41;100096.41;;;23.03;55.36
71149;BME280;59072;42.144;25.200;2022-07-21T06:06:07;100075.97;;;23.20;54.97
71149;BME280;59072;42.144;25.200;2022-07-21T06:08:33;100082.78;;;23.45;54.00
71149;BME280;59072;42.144;25.200;2022-07-21T06:10:58;100083.97;;;23.66;51.59
71149;BME280;59072;42.144;25.200;2022-07-21T06:13:24;100071.44;;;23.79;51.05
71149;BME280;59072;42.144;25.200;2022-07-21T06:15:49;100078.84;;;24.01;50.07
71149;BME280;59072;42.144;25.200;2022-07-21T06:18:15;100081.06;;;24.22;51.31
71149;BME280;59072;42.144;25.200;2022-07-21T06:20:41;100081.03;;;24.36;50.11
71149;BME280;59072;42.144;25.200;2022-07-21T06:23:07;100064.28;;;24.51;48.35
71149;BME280;59072;42.144;25.200;2022-07-21T06:25:32;100079.16;;;24.76;48.16
71149;BME280;59072;42.144;25.200;2022-07-21T06:27:58;100055.19;;;24.96;46.43
71149;BME280;59072;42.144;25.200;2022-07-21T06:30:23;100065.72;;;25.20;47.63
71149;BME280;59072;42.144;25.200;2022-07-21T06:32:49;100070.47;;;25.54;45.92
71149;BME280;59072;42.144;25.200;2022-07-21T06:35:14;100048.31;;;25.64;44.20
71149;BME280;59072;42.144;25.200;2022-07-21T06:37:44;100063.25;;;25.84;44.46
71149;BME280;59072;42.144;25.200;2022-07-21T06:40:11;100071.16;;;26.03;43.17
71149;BME280;59072;42.144;25.200;2022-07-21T06:42:37;100066.00;;;26.11;43.41
71149;BME280;59072;42.144;25.200;2022-07-21T06:45:03;100061.00;;;26.30;42.33
71149;BME280;59072;42.144;25.200;2022-07-21T06:47:29;100040.53;;;26.45;41.24
71149;BME280;59072;42.144;25.200;2022-07-21T06:49:54;100039.06;;;26.48;40.00
71149;BME280;59072;42.144;25.200;2022-07-21T06:52:20;100061.38;;;26.76;40.71
71149;BME280;59072;42.144;25.200;2022-07-21T06:54:45;100063.06;;;26.98;40.46
71149;BME280;59072;42.144;25.200;2022-07-21T06:57:11;100055.00;;;27.01;40.64
71149;BME280;59072;42.144;25.200;2022-07-21T06:59:36;100032.38;;;27.13;39.11
71149;BME280;59072;42.144;25.200;2022-07-21T07:02:02;100041.47;;;26.96;39.75
71149;BME280;59072;42.144;25.200;2022-07-21T07:04:28;100053.41;;;27.21;39.55
71149;BME280;59072;42.144;25.200;2022-07-21T07:06:53;100033.31;;;27.47;39.00
71149;BME280;59072;42.144;25.200;2022-07-21T07:09:20;100033.56;;;27.33;39.61
71149;BME280;59072;42.144;25.200;2022-07-21T07:11:48;100019.75;;;27.51;38.59
71149;BME280;59072;42.144;25.200;2022-07-21T07:14:14;100043.16;;;27.90;38.53
71149;BME280;59072;42.144;25.200;2022-07-21T07:16:39;100033.50;;;28.05;38.56
71149;BME280;59072;42.144;25.200;2022-07-21T07:19:05;100011.47;;;28.01;36.51
71149;BME280;59072;42.144;25.200;2022-07-21T07:21:31;100044.44;;;28.26;37.34
71149;BME280;59072;42.144;25.200;2022-07-21T07:23:56;100034.25;;;28.27;36.03
71149;BME280;59072;42.144;25.200;2022-07-21T07:26:22;100035.97;;;28.31;35.78
71149;BME280;59072;42.144;25.200;2022-07-21T07:28:47;100022.72;;;28.33;34.88
71149;BME280;59072;42.144;25.200;2022-07-21T07:31:13;100023.91;;;28.44;35.00
71149;BME280;59072;42.144;25.200;2022-07-21T07:33:38;100030.91;;;28.67;35.88
71149;BME280;59072;42.144;25.200;2022-07-21T07:36:04;100031.97;;;28.74;36.01
71149;BME280;59072;42.144;25.200;2022-07-21T07:38:29;100021.31;;;28.73;35.15
71149;BME280;59072;42.144;25.200;2022-07-21T07:40:55;100011.13;;;28.49;35.86
71149;BME280;59072;42.144;25.200;2022-07-21T07:43:20;100017.56;;;28.90;35.88
71149;BME280;59072;42.144;25.200;2022-07-21T07:45:46;100023.63;;;29.08;35.71
71149;BME280;59072;42.144;25.200;2022-07-21T07:48:11;100028.88;;;29.25;34.66
71149;BME280;59072;42.144;25.200;2022-07-21T07:50:37;100027.50;;;29.31;35.20
71149;BME280;59072;42.144;25.200;2022-07-21T07:53:02;100028.19;;;29.69;35.00
71149;BME280;59072;42.144;25.200;2022-07-21T07:55:28;100017.09;;;29.77;33.92
71149;BME280;59072;42.144;25.200;2022-07-21T07:57:53;100005.28;;;29.77;33.73
71149;BME280;59072;42.144;25.200;2022-07-21T08:00:19;100018.28;;;29.92;34.12
71149;BME280;59072;42.144;25.200;2022-07-21T08:02:45;100004.72;;;29.99;33.86
71149;BME280;59072;42.144;25.200;2022-07-21T08:05:11;100010.56;;;30.26;33.55
71149;BME280;59072;42.144;25.200;2022-07-21T08:07:37;100006.25;;;30.41;32.70
71149;BME280;59072;42.144;25.200;2022-07-21T08:10:08;100010.78;;;30.65;32.47
71149;BME280;59072;42.144;25.200;2022-07-21T08:12:35;100003.91;;;30.75;31.42
71149;BME280;59072;42.144;25.200;2022-07-21T08:15:01;100006.66;;;31.07;32.03
71149;BME280;59072;42.144;25.200;2022-07-21T08:17:27;100002.28;;;31.06;29.71
71149;BME280;59072;42.144;25.200;2022-07-21T08:19:52;100007.31;;;31.00;30.56
71149;BME280;59072;42.144;25.200;2022-07-21T08:22:18;99993.59;;;31.03;30.20
71149;BME280;59072;42.144;25.200;2022-07-21T08:24:43;100001.69;;;31.12;30.81
71149;BME280;59072;42.144;25.200;2022-07-21T08:27:09;99997.50;;;31.38;30.31
71149;BME280;59072;42.144;25.200;2022-07-21T08:29:34;99981.81;;;31.42;29.02
71149;BME280;59072;42.144;25.200;2022-07-21T08:32:00;99998.69;;;31.76;27.71
71149;BME280;59072;42.144;25.200;2022-07-21T08:34:26;99984.91;;;31.56;28.47
71149;BME280;59072;42.144;25.200;2022-07-21T08:36:51;99984.97;;;31.79;28.65
71149;BME280;59072;42.144;25.200;2022-07-21T08:39:17;100000.28;;;31.77;29.56
71149;BME280;59072;42.144;25.200;2022-07-21T08:41:42;99995.34;;;31.86;29.04
71149;BME280;59072;42.144;25.200;2022-07-21T08:44:08;99978.31;;;32.00;30.42
71149;BME280;59072;42.144;25.200;2022-07-21T08:46:38;99972.53;;;32.09;29.39
71149;BME280;59072;42.144;25.200;2022-07-21T08:49:05;99969.78;;;32.09;29.58
71149;BME280;59072;42.144;25.200;2022-07-21T08:51:32;99986.69;;;32.30;28.83
71149;BME280;59072;42.144;25.200;2022-07-21T08:53:59;99971.00;;;32.34;29.46
71149;BME280;59072;42.144;25.200;2022-07-21T08:56:24;99988.69;;;32.79;28.99
71149;BME280;59072;42.144;25.200;2022-07-21T08:58:50;99993.06;;;32.80;28.87
71149;BME280;59072;42.144;25.200;2022-07-21T09:01:16;99982.88;;;32.85;28.82
71149;BME280;59072;42.144;25.200;2022-07-21T09:03:41;99982.34;;;33.02;28.63
71149;BME280;59072;42.144;25.200;2022-07-21T09:06:10;99985.34;;;32.93;27.93
71149;BME280;59072;42.144;25.200;2022-07-21T09:08:46;99975.22;;;33.01;27.88
71149;BME280;59072;42.144;25.200;2022-07-21T09:11:16;99978.50;;;33.37;27.98
71149;BME280;59072;42.144;25.200;2022-07-21T09:13:45;99978.31;;;33.22;28.37
71149;BME280;59072;42.144;25.200;2022-07-21T09:16:11;99976.84;;;33.32;27.50
71149;BME280;59072;42.144;25.200;2022-07-21T09:18:48;99952.72;;;33.29;27.31
71149;BME280;59072;42.144;25.200;2022-07-21T09:21:15;99974.38;;;33.57;26.71
71149;BME280;59072;42.144;25.200;2022-07-21T09:23:41;99945.31;;;33.71;27.51
71149;BME280;59072;42.144;25.200;2022-07-21T09:26:06;99961.91;;;33.71;26.61
71149;BME280;59072;42.144;25.200;2022-07-21T09:28:32;99960.44;;;33.80;25.87
71149;BME280;59072;42.144;25.200;2022-07-21T09:31:00;99966.13;;;33.95;25.95
71149;BME280;59072;42.144;25.200;2022-07-21T09:33:44;99942.38;;;33.90;25.97
71149;BME280;59072;42.144;25.200;2022-07-21T09:36:15;99952.63;;;34.27;25.79
71149;BME280;59072;42.144;25.200;2022-07-21T09:38:53;99953.63;;;34.12;26.48
71149;BME280;59072;42.144;25.200;2022-07-21T09:41:25;99943.34;;;34.09;26.56
71149;BME280;59072;42.144;25.200;2022-07-21T09:43:56;99930.09;;;34.32;26.95
71149;BME280;59072;42.144;25.200;2022-07-21T09:46:27;99957.53;;;34.52;25.45
71149;BME280;59072;42.144;25.200;2022-07-21T09:48:55;99942.34;;;34.83;25.50
71149;BME280;59072;42.144;25.200;2022-07-21T09:51:30;99931.69;;;34.89;24.24
71149;BME280;59072;42.144;25.200;2022-07-21T09:54:08;99951.25;;;35.17;23.40
71149;BME280;59072;42.144;25.200;2022-07-21T09:56:36;99943.28;;;35.12;24.45
71149;BME280;59072;42.144;25.200;2022-07-21T09:59:04;99941.06;;;35.43;23.80
71149;BME280;59072;42.144;25.200;2022-07-21T10:01:30;99944.97;;;35.35;23.16
71149;BME280;59072;42.144;25.200;2022-07-21T10:03:56;99929.28;;;35.68;23.25
71149;BME280;59072;42.144;25.200;2022-07-21T10:06:25;99931.59;;;35.58;23.50
71149;BME280;59072;42.144;25.200;2022-07-21T10:08:52;99926.44;;;35.53;22.81
71149;BME280;59072;42.144;25.200;2022-07-21T10:11:18;99930.47;;;35.81;22.22
71149;BME280;59072;42.144;25.200;2022-07-21T10:13:43;99926.44;;;35.53;22.25
71149;BME280;59072;42.144;25.200;2022-07-21T10:16:10;99915.69;;;35.41;21.76
71149;BME280;59072;42.144;25.200;2022-07-21T10:18:42;99918.59;;;35.70;23.27
71149;BME280;59072;42.144;25.200;2022-07-21T10:21:26;99909.88;;;35.75;21.43
71149;BME280;59072;42.144;25.200;2022-07-21T10:23:55;99901.16;;;35.76;23.91
71149;BME280;59072;42.144;25.200;2022-07-21T10:26:21;99911.78;;;35.46;22.35
71149;BME280;59072;42.144;25.200;2022-07-21T10:28:46;99914.13;;;35.44;23.34
71149;BME280;59072;42.144;25.200;2022-07-21T10:31:20;99910.25;;;35.77;21.72
71149;BME280;59072;42.144;25.200;2022-07-21T10:41:43;99905.91;;;36.12;21.81
71149;BME280;59072;42.144;25.200;2022-07-21T10:47:07;99890.06;;;35.87;22.10
71149;BME280;59072;42.144;25.200;2022-07-21T10:49:49;99902.75;;;36.46;22.40
71149;BME280;59072;42.144;25.200;2022-07-21T10:57:35;99887.84;;;37.28;20.58
71149;BME280;59072;42.144;25.200;2022-07-21T11:00:27;99885.69;;;37.53;21.61
71149;BME280;59072;42.144;25.200;2022-07-21T11:02:59;99876.56;;;37.53;22.73
71149;BME280;59072;42.144;25.200;2022-07-21T11:05:26;99880.53;;;37.59;20.79
71149;BME280;59072;42.144;25.200;2022-07-21T11:08:08;99881.94;;;37.82;20.96
71149;BME280;59072;42.144;25.200;2022-07-21T11:10:36;99878.00;;;37.79;21.04
71149;BME280;59072;42.144;25.200;2022-07-21T11:13:02;99878.00;;;37.79;21.26
71149;BME280;59072;42.144;25.200;2022-07-21T11:15:54;99853.13;;;38.06;20.21
71149;BME280;59072;42.144;25.200;2022-07-21T11:18:22;99864.28;;;38.03;22.98
71149;BME280;59072;42.144;25.200;2022-07-21T11:26:06;99848.94;;;37.20;21.42
71149;BME280;59072;42.144;25.200;2022-07-21T11:28:32;99848.72;;;37.56;21.21
71149;BME280;59072;42.144;25.200;2022-07-21T11:31:12;99861.78;;;38.19;21.29
71149;BME280;59072;42.144;25.200;2022-07-21T11:33:40;99859.28;;;38.28;20.39
71149;BME280;59072;42.144;25.200;2022-07-21T11:36:06;99855.53;;;38.08;20.41
71149;BME280;59072;42.144;25.200;2022-07-21T11:38:32;99858.69;;;38.10;21.17
71149;BME280;59072;42.144;25.200;2022-07-21T11:41:15;99861.75;;;38.64;20.54
71149;BME280;59072;42.144;25.200;2022-07-21T11:43:46;99857.47;;;38.56;20.38
71149;BME280;59072;42.144;25.200;2022-07-21T11:46:12;99848.25;;;38.59;20.02
71149;BME280;59072;42.144;25.200;2022-07-21T11:48:38;99826.19;;;39.06;19.22
71149;BME280;59072;42.144;25.200;2022-07-21T11:51:04;99845.53;;;39.17;19.65
71149;BME280;59072;42.144;25.200;2022-07-21T11:53:31;99835.66;;;38.78;18.13
71149;BME280;59072;42.144;25.200;2022-07-21T11:55:57;99834.59;;;38.30;20.41
71149;BME280;59072;42.144;25.200;2022-07-21T11:58:23;99825.16;;;38.21;21.02
71149;BME280;59072;42.144;25.200;2022-07-21T12:00:48;99828.31;;;38.23;20.12
71149;BME280;59072;42.144;25.200;2022-07-21T12:03:14;99833.03;;;38.29;20.43
71149;BME280;59072;42.144;25.200;2022-07-21T12:05:40;99821.91;;;38.29;19.26
71149;BME280;59072;42.144;25.200;2022-07-21T12:08:07;99823.69;;;38.47;19.60
71149;BME280;59072;42.144;25.200;2022-07-21T12:10:32;99826.06;;;38.52;19.46
71149;BME280;59072;42.144;25.200;2022-07-21T12:13:03;99836.09;;;38.42;19.62
71149;BME280;59072;42.144;25.200;2022-07-21T12:15:34;99821.13;;;38.63;20.04
71149;BME280;59072;42.144;25.200;2022-07-21T12:18:03;99815.81;;;38.42;19.37
71149;BME280;59072;42.144;25.200;2022-07-21T12:20:35;99816.84;;;38.55;19.05
71149;BME280;59072;42.144;25.200;2022-07-21T12:23:03;99826.25;;;38.68;21.07
71149;BME280;59072;42.144;25.200;2022-07-21T12:25:42;99794.88;;;38.26;19.34
71149;BME280;59072;42.144;25.200;2022-07-21T12:28:08;99806.84;;;38.23;18.51
71149;BME280;59072;42.144;25.200;2022-07-21T12:33:15;99807.56;;;38.96;19.28
71149;BME280;59072;42.144;25.200;2022-07-21T12:35:43;99800.41;;;39.26;19.67
71149;BME280;59072;42.144;25.200;2022-07-21T12:38:11;99798.41;;;39.53;18.53
71149;BME280;59072;42.144;25.200;2022-07-21T12:40:43;99799.41;;;39.90;18.89
71149;BME280;59072;42.144;25.200;2022-07-21T12:43:15;99803.28;;;39.18;18.87
71149;BME280;59072;42.144;25.200;2022-07-21T12:45:59;99794.03;;;38.94;20.21
71149;BME280;59072;42.144;25.200;2022-07-21T12:48:33;99790.97;;;38.89;20.48
71149;BME280;59072;42.144;25.200;2022-07-21T12:53:35;99778.94;;;39.50;18.66
71149;BME280;59072;42.144;25.200;2022-07-21T12:56:01;99787.72;;;39.72;19.18
71149;BME280;59072;42.144;25.200;2022-07-21T12:58:27;99784.44;;;39.53;18.09
71149;BME280;59072;42.144;25.200;2022-07-21T13:00:52;99766.94;;;39.53;17.82
71149;BME280;59072;42.144;25.200;2022-07-21T13:03:18;99768.72;;;39.40;19.48
71149;BME280;59072;42.144;25.200;2022-07-21T13:05:44;99762.09;;;39.03;19.08
71149;BME280;59072;42.144;25.200;2022-07-21T13:08:09;99767.31;;;38.70;19.23
71149;BME280;59072;42.144;25.200;2022-07-21T13:10:35;99772.00;;;38.08;19.74